SBMQ/MCP METAR and TAF weather

Enter ICAO airport designator
Station Type Date Time Source
SBMQ METAR 2022/08/12 14:00 UTC NOAA

SBMQ 121400Z 08010KT 9999 BKN020 32/24 Q1015


Station Type Date Time Source
SBMQ Decoded METAR 2022/08/12 14:00 UTC NOAA

Macapa, Brazil (SBMQ) 00-02N 050-03W
Aug 12, 2022 - 10:00 AM EDT / 2022.08.12 1400 UTC
Wind: from the E (080 degrees) at 12 MPH (10 KT):0
Visibility: greater than 7 mile(s):0
Sky conditions: mostly cloudy
Temperature: 89 F (32 C)
Heat index: 98.4 F (36.9 C):1
Dew Point: 75 F (24 C)
Relative Humidity: 62%
Pressure (altimeter): 29.97 in. Hg (1015 hPa)
ob: SBMQ 121400Z 08010KT 9999 BKN020 32/24 Q1015
cycle: 14

Station Type Date Time Source
SBMQ TAF 2022/08/12 12:59 UTC NOAA

TAF SBMQ 120800Z 1212/1312 07007KT 9999 SCT025 TX34/1218Z TN25/1309Z
BECMG 1216/1218 SCT020 FEW030TCU PROB30 1219/1222 05010KT 8000 TS BKN020 FEW030CB
BECMG 1222/1223 05007KT FEW025
BECMG 1303/1305 02007KT SCT025
BECMG 1310/1312 07007KT SCT017
RMK PGB

Example: see airport list